createdAt,value
2022-12-04T00:02:04.120Z,100466.00
2022-12-04T00:04:53.467Z,100514.00
2022-12-04T00:08:31.725Z,100518.00
2022-12-04T00:11:13.510Z,100471.00
2022-12-04T00:14:04.632Z,100454.00
2022-12-04T00:16:51.205Z,100484.00
2022-12-04T00:19:33.516Z,100402.00
2022-12-04T00:22:13.483Z,100507.00
2022-12-04T00:25:13.596Z,100515.00
2022-12-04T00:27:52.208Z,100508.00
2022-12-04T00:30:39.732Z,100503.00
2022-12-04T00:33:20.736Z,100434.00
2022-12-04T00:36:01.700Z,100482.00
2022-12-04T00:38:52.698Z,100490.00
2022-12-04T00:41:37.470Z,100501.00
2022-12-04T00:44:43.878Z,100442.00
2022-12-04T00:47:31.039Z,100514.00
2022-12-04T00:50:14.572Z,100499.00
2022-12-04T00:52:53.403Z,100487.00
2022-12-04T00:55:59.380Z,100468.00
2022-12-04T00:58:44.725Z,100485.00
2022-12-04T01:01:42.699Z,100494.00
2022-12-04T01:04:24.418Z,100442.00
2022-12-04T01:07:06.814Z,100510.00
2022-12-04T01:09:45.023Z,100476.00
2022-12-04T01:12:27.212Z,100467.00
2022-12-04T01:15:09.929Z,100489.00
2022-12-04T01:17:54.280Z,100503.00
2022-12-04T01:20:44.848Z,100482.00
2022-12-04T01:23:30.264Z,100449.00
2022-12-04T01:26:24.234Z,100490.00
2022-12-04T01:29:24.349Z,100476.00
2022-12-04T01:32:05.169Z,100499.00
2022-12-04T01:34:49.481Z,100442.00
2022-12-04T01:37:33.281Z,100469.00
2022-12-04T01:40:22.798Z,100450.00
2022-12-04T01:43:04.176Z,100502.00
2022-12-04T01:45:57.795Z,100490.00
2022-12-04T01:49:24.568Z,100431.00
2022-12-04T01:52:12.612Z,100502.00
2022-12-04T01:54:59.935Z,100489.00
2022-12-04T01:58:24.134Z,100445.00
2022-12-04T02:01:46.266Z,100493.00
2022-12-04T02:04:36.464Z,100482.00
2022-12-04T02:07:23.276Z,100493.00
2022-12-04T02:10:45.613Z,100468.00
2022-12-04T02:14:06.424Z,100466.00
2022-12-04T02:17:17.856Z,100445.00
2022-12-04T02:21:13.710Z,100389.00
2022-12-04T02:25:54.569Z,100427.00
2022-12-04T02:28:37.154Z,100477.00
2022-12-04T02:31:45.689Z,100476.00
2022-12-04T02:35:13.346Z,100484.00
2022-12-04T02:38:20.998Z,100476.00
2022-12-04T02:41:16.381Z,100475.00
2022-12-04T02:44:32.652Z,100435.00
2022-12-04T02:47:33.729Z,100391.00
2022-12-04T02:50:24.097Z,100445.00
2022-12-04T02:56:35.009Z,100459.00
2022-12-04T02:59:23.008Z,100368.00
2022-12-04T03:02:23.986Z,100438.00
2022-12-04T03:05:56.786Z,100420.00
2022-12-04T03:12:37.895Z,100458.00
2022-12-04T03:15:33.913Z,100455.00
2022-12-04T03:18:48.125Z,100455.00
2022-12-04T03:22:05.355Z,100371.00
2022-12-04T03:24:59.264Z,100409.00
2022-12-04T03:28:18.949Z,100462.00
2022-12-04T03:31:03.329Z,100447.00
2022-12-04T03:34:11.718Z,100484.00
2022-12-04T03:37:18.303Z,100434.00
2022-12-04T03:40:07.861Z,100478.00
2022-12-04T03:43:15.572Z,100423.00
2022-12-04T03:46:05.930Z,100481.00
2022-12-04T03:48:50.514Z,100427.00
2022-12-04T03:51:40.995Z,100477.00
2022-12-04T03:54:50.955Z,100460.00
2022-12-04T03:57:47.882Z,100455.00
2022-12-04T04:00:33.362Z,100462.00
2022-12-04T04:03:33.938Z,100465.00
2022-12-04T04:06:29.530Z,100469.00
2022-12-04T04:09:38.541Z,100463.00
2022-12-04T04:12:38.511Z,100455.00
2022-12-04T04:15:39.768Z,100433.00
2022-12-04T04:19:04.626Z,100409.00
2022-12-04T04:22:04.036Z,100414.00
2022-12-04T04:28:54.386Z,100418.00
2022-12-04T04:31:59.831Z,100489.00
2022-12-04T04:35:14.478Z,100457.00
2022-12-04T04:38:16.174Z,100476.00
2022-12-04T04:41:09.509Z,100421.00
2022-12-04T04:44:08.005Z,100491.00
2022-12-04T04:47:04.728Z,100420.00
2022-12-04T04:49:57.477Z,100415.00
2022-12-04T04:52:42.558Z,100474.00
2022-12-04T04:55:35.010Z,100406.00
2022-12-04T04:58:27.721Z,100465.00
2022-12-04T05:01:10.440Z,100465.00
2022-12-04T05:03:49.156Z,100407.00
2022-12-04T05:06:33.643Z,100417.00
2022-12-04T05:09:18.270Z,100461.00
2022-12-04T05:11:53.461Z,100455.00
2022-12-04T05:14:31.354Z,100463.00
2022-12-04T05:17:27.051Z,100469.00
2022-12-04T05:20:02.397Z,100486.00
2022-12-04T05:22:47.958Z,100484.00
2022-12-04T05:25:26.827Z,100461.00
2022-12-04T05:28:04.472Z,100410.00
2022-12-04T05:30:42.078Z,100469.00
2022-12-04T05:33:17.207Z,100392.00
2022-12-04T05:36:00.743Z,100429.00
2022-12-04T05:38:40.185Z,100393.00
2022-12-04T05:41:15.439Z,100435.00
2022-12-04T05:43:55.274Z,100409.00
2022-12-04T05:46:30.659Z,100447.00
2022-12-04T05:49:05.974Z,100438.00
2022-12-04T05:52:08.121Z,100436.00
2022-12-04T05:54:45.209Z,100362.00
2022-12-04T05:57:24.121Z,100453.00
2022-12-04T06:00:20.374Z,100360.00
2022-12-04T06:02:56.592Z,100446.00
2022-12-04T06:06:50.101Z,100438.00
2022-12-04T06:09:35.694Z,100412.00
2022-12-04T06:12:20.648Z,100455.00
2022-12-04T06:15:06.648Z,100387.00
2022-12-04T06:17:58.565Z,100385.00
2022-12-04T06:20:34.711Z,100417.00
2022-12-04T06:23:43.570Z,100402.00
2022-12-04T06:30:12.265Z,100372.00
2022-12-04T06:32:51.220Z,100461.00
2022-12-04T06:36:06.788Z,100445.00
2022-12-04T06:39:00.449Z,100500.00
2022-12-04T06:42:32.132Z,100448.00
2022-12-04T06:45:19.749Z,100475.00
2022-12-04T06:48:21.101Z,100461.00
2022-12-04T06:51:09.026Z,100402.00
2022-12-04T06:54:03.520Z,100399.00
2022-12-04T06:57:02.572Z,100466.00
2022-12-04T06:59:42.260Z,100464.00
2022-12-04T07:06:01.803Z,100474.00
2022-12-04T07:08:56.168Z,100418.00
2022-12-04T07:11:58.988Z,100453.00
2022-12-04T07:14:43.547Z,100424.00
2022-12-04T07:21:12.727Z,100456.00
2022-12-04T07:24:50.083Z,100456.00
2022-12-04T07:27:35.703Z,100409.00
2022-12-04T07:30:18.427Z,100470.00
2022-12-04T07:33:11.306Z,100481.00
2022-12-04T07:36:20.201Z,100432.00
2022-12-04T07:40:07.949Z,100477.00
2022-12-04T07:46:39.020Z,100478.00
2022-12-04T07:53:32.224Z,100478.00
2022-12-04T07:56:48.694Z,100472.00
2022-12-04T08:03:43.515Z,100473.00
2022-12-04T08:07:14.581Z,100446.00
2022-12-04T08:09:59.336Z,100500.00
2022-12-04T08:13:13.789Z,100435.00
2022-12-04T08:16:34.337Z,100438.00
2022-12-04T08:19:29.180Z,100421.00
2022-12-04T08:22:55.642Z,100430.00
2022-12-04T08:26:34.061Z,100479.00
2022-12-04T08:32:42.574Z,100406.00
2022-12-04T08:35:26.668Z,100506.00
2022-12-04T08:38:25.637Z,100484.00
2022-12-04T08:41:18.002Z,100484.00
2022-12-04T08:44:24.978Z,100425.00
2022-12-04T08:47:37.518Z,100492.00
2022-12-04T08:50:18.674Z,100482.00
2022-12-04T08:53:16.112Z,100497.00
2022-12-04T08:56:44.012Z,100476.00
2022-12-04T08:59:48.038Z,100493.00
2022-12-04T09:02:59.663Z,100492.00
2022-12-04T09:05:42.302Z,100499.00
2022-12-04T09:08:47.999Z,100468.00
2022-12-04T09:12:10.523Z,100476.00
2022-12-04T09:15:21.830Z,100481.00
2022-12-04T09:18:31.794Z,100443.00
2022-12-04T09:21:59.352Z,100486.00
2022-12-04T09:29:09.240Z,100434.00
2022-12-04T09:31:50.510Z,100394.00
2022-12-04T09:35:16.679Z,100468.00
2022-12-04T09:38:49.875Z,100483.00
2022-12-04T09:42:35.005Z,100480.00
2022-12-04T09:45:46.074Z,100439.00
2022-12-04T09:48:43.017Z,100483.00
2022-12-04T09:51:42.340Z,100400.00
2022-12-04T09:55:00.065Z,100411.00
2022-12-04T09:57:53.241Z,100402.00
2022-12-04T10:01:09.441Z,100491.00
2022-12-04T10:04:06.527Z,100507.00
2022-12-04T10:07:22.245Z,100488.00
2022-12-04T10:10:31.890Z,100459.00
2022-12-04T10:13:45.148Z,100495.00
2022-12-04T10:16:42.230Z,100476.00
2022-12-04T10:20:11.485Z,100466.00
2022-12-04T10:23:56.691Z,100501.00
2022-12-04T10:27:04.923Z,100444.00
2022-12-04T10:30:08.809Z,100469.00
2022-12-04T10:33:30.737Z,100407.00
2022-12-04T10:36:28.202Z,100420.00
2022-12-04T10:39:17.177Z,100481.00
2022-12-04T10:42:44.133Z,100374.00
2022-12-04T10:46:01.005Z,100467.00
2022-12-04T10:52:54.119Z,100476.00
2022-12-04T10:55:59.242Z,100474.00
2022-12-04T10:58:59.517Z,100367.00
2022-12-04T11:02:27.781Z,100416.00
2022-12-04T11:05:40.784Z,100453.00
2022-12-04T11:08:51.646Z,100450.00
2022-12-04T11:11:40.079Z,100433.00
2022-12-04T11:14:27.245Z,100439.00
2022-12-04T11:17:10.418Z,100431.00
2022-12-04T11:23:05.390Z,100348.00
2022-12-04T11:26:05.904Z,100374.00
2022-12-04T11:29:24.452Z,100374.00
2022-12-04T11:32:53.277Z,100367.00
2022-12-04T11:39:45.931Z,100425.00
2022-12-04T11:42:48.103Z,100398.00
2022-12-04T11:46:38.619Z,100421.00
2022-12-04T11:50:25.539Z,100425.00
2022-12-04T11:54:04.245Z,100412.00
2022-12-04T11:57:24.985Z,100407.00
2022-12-04T12:00:57.056Z,100406.00
2022-12-04T12:04:26.364Z,100393.00
2022-12-04T12:08:24.220Z,100401.00
2022-12-04T12:11:15.741Z,100359.00
2022-12-04T12:14:25.387Z,100394.00
2022-12-04T12:20:34.638Z,100403.00
2022-12-04T12:23:58.947Z,100399.00
2022-12-04T12:26:59.338Z,100336.00
2022-12-04T12:29:59.393Z,100359.00
2022-12-04T12:33:14.849Z,100391.00
2022-12-04T12:36:06.510Z,100386.00
2022-12-04T12:38:51.261Z,100333.00
2022-12-04T12:41:33.985Z,100396.00
2022-12-04T12:45:06.239Z,100385.00
2022-12-04T12:47:47.706Z,100392.00
2022-12-04T12:50:31.756Z,100387.00
2022-12-04T12:53:53.590Z,100360.00
2022-12-04T12:56:46.311Z,100281.00
2022-12-04T12:59:32.615Z,100363.00
2022-12-04T13:02:32.100Z,100341.00
2022-12-04T13:05:25.056Z,100378.00
2022-12-04T13:08:26.251Z,100371.00
2022-12-04T13:12:07.514Z,100363.00
2022-12-04T13:14:49.171Z,100363.00
2022-12-04T13:17:57.150Z,100345.00
2022-12-04T13:20:49.695Z,100346.00
2022-12-04T13:23:58.112Z,100337.00
2022-12-04T13:26:55.424Z,100360.00
2022-12-04T13:29:52.717Z,100301.00
2022-12-04T13:34:18.537Z,100369.00
2022-12-04T13:37:55.027Z,100388.00
2022-12-04T13:40:41.721Z,100338.00
2022-12-04T13:43:50.144Z,100312.00
2022-12-04T13:46:57.336Z,100389.00
2022-12-04T13:49:45.874Z,100383.00
2022-12-04T13:52:44.135Z,100378.00
2022-12-04T13:55:48.980Z,100362.00
2022-12-04T13:59:39.119Z,100366.00
2022-12-04T14:02:53.219Z,100370.00
2022-12-04T14:05:34.000Z,100365.00
2022-12-04T14:08:54.135Z,100363.00
2022-12-04T14:12:01.447Z,100363.00
2022-12-04T14:14:52.212Z,100373.00
2022-12-04T14:18:06.794Z,100332.00
2022-12-04T14:21:01.958Z,100371.00
2022-12-04T14:24:37.830Z,100354.00
2022-12-04T14:28:12.561Z,100292.00
2022-12-04T14:31:36.647Z,100325.00
2022-12-04T14:34:40.248Z,100357.00
2022-12-04T14:37:32.727Z,100376.00
2022-12-04T14:40:34.647Z,100359.00
2022-12-04T14:43:52.392Z,100371.00
2022-12-04T14:50:21.322Z,100310.00
2022-12-04T14:53:28.590Z,100357.00
2022-12-04T14:57:01.580Z,100353.00
2022-12-04T14:59:50.882Z,100346.00
2022-12-04T15:02:47.716Z,100349.00
2022-12-04T15:05:37.399Z,100321.00
2022-12-04T15:08:40.065Z,100300.00
2022-12-04T15:12:04.308Z,100335.00
2022-12-04T15:19:03.285Z,100324.00
2022-12-04T15:21:50.503Z,100320.00
2022-12-04T15:24:31.183Z,100347.00
2022-12-04T15:27:17.266Z,100331.00
2022-12-04T15:29:56.067Z,100355.00
2022-12-04T15:33:20.910Z,100350.00
2022-12-04T15:36:08.626Z,100356.00
2022-12-04T15:39:10.501Z,100377.00
2022-12-04T15:41:50.132Z,100302.00
2022-12-04T15:45:03.274Z,100315.00
2022-12-04T15:48:19.880Z,100363.00
2022-12-04T15:51:05.661Z,100385.00
2022-12-04T15:54:09.160Z,100378.00
2022-12-04T15:57:15.821Z,100336.00
2022-12-04T16:00:07.769Z,100370.00
2022-12-04T16:03:03.997Z,100306.00
2022-12-04T16:05:40.046Z,100378.00
2022-12-04T16:12:08.176Z,100367.00
2022-12-04T16:14:47.976Z,100309.00
2022-12-04T16:17:47.081Z,100323.00
2022-12-04T16:20:26.873Z,100335.00
2022-12-04T16:23:26.052Z,100318.00
2022-12-04T16:26:06.557Z,100321.00
2022-12-04T16:29:06.262Z,100315.00
2022-12-04T16:31:46.132Z,100356.00
2022-12-04T16:34:48.632Z,100361.00
2022-12-04T16:37:43.770Z,100367.00
2022-12-04T16:40:26.977Z,100273.00
2022-12-04T16:43:06.393Z,100383.00
2022-12-04T16:45:51.365Z,100330.00
2022-12-04T16:48:39.722Z,100388.00
2022-12-04T16:51:47.315Z,100363.00
2022-12-04T16:54:40.854Z,100402.00
2022-12-04T16:57:33.452Z,100404.00
2022-12-04T17:00:29.242Z,100305.00
2022-12-04T17:03:48.171Z,100395.00
2022-12-04T17:06:52.359Z,100364.00
2022-12-04T17:09:57.635Z,100309.00
2022-12-04T17:16:48.751Z,100412.00
2022-12-04T17:19:29.403Z,100415.00
2022-12-04T17:22:14.043Z,100420.00
2022-12-04T17:25:04.971Z,100410.00
2022-12-04T17:27:42.338Z,100387.00
2022-12-04T17:30:21.061Z,100413.00
2022-12-04T17:33:03.344Z,100419.00
2022-12-04T17:35:46.568Z,100412.00
2022-12-04T17:38:24.690Z,100417.00
2022-12-04T17:41:04.229Z,100413.00
2022-12-04T17:44:09.165Z,100413.00
2022-12-04T17:46:46.828Z,100388.00
2022-12-04T17:49:32.896Z,100411.00
2022-12-04T17:52:10.951Z,100364.00
2022-12-04T17:54:58.477Z,100319.00
2022-12-04T17:58:05.296Z,100339.00
2022-12-04T18:00:45.277Z,100405.00
2022-12-04T18:03:20.868Z,100371.00
2022-12-04T18:06:02.356Z,100333.00
2022-12-04T18:08:50.258Z,100372.00
2022-12-04T18:11:28.705Z,100380.00
2022-12-04T18:14:15.613Z,100377.00
2022-12-04T18:17:03.091Z,100318.00
2022-12-04T18:19:42.904Z,100400.00
2022-12-04T18:22:38.475Z,100397.00
2022-12-04T18:25:13.990Z,100408.00
2022-12-04T18:27:55.245Z,100355.00
2022-12-04T18:30:59.494Z,100332.00
2022-12-04T18:33:38.066Z,100380.00
2022-12-04T18:36:39.045Z,100396.00
2022-12-04T18:39:21.205Z,100389.00
2022-12-04T18:42:04.437Z,100333.00
2022-12-04T18:45:18.482Z,100403.00
2022-12-04T18:48:15.750Z,100393.00
2022-12-04T18:51:02.458Z,100392.00
2022-12-04T18:53:48.898Z,100409.00
2022-12-04T18:56:33.739Z,100351.00
2022-12-04T18:59:24.117Z,100378.00
2022-12-04T19:02:12.901Z,100321.00
2022-12-04T19:04:54.590Z,100403.00
2022-12-04T19:07:33.509Z,100345.00
2022-12-04T19:10:18.212Z,100406.00
2022-12-04T19:12:59.562Z,100408.00
2022-12-04T19:19:00.677Z,100358.00
2022-12-04T19:21:43.515Z,100412.00
2022-12-04T19:24:24.299Z,100406.00
2022-12-04T19:27:17.973Z,100412.00
2022-12-04T19:30:00.599Z,100345.00
2022-12-04T19:32:52.955Z,100383.00
2022-12-04T19:35:37.237Z,100399.00
2022-12-04T19:38:40.939Z,100413.00
2022-12-04T19:41:25.318Z,100399.00
2022-12-04T19:44:48.038Z,100322.00
2022-12-04T19:48:00.087Z,100366.00
2022-12-04T19:51:06.254Z,100325.00
2022-12-04T19:53:51.199Z,100420.00
2022-12-04T20:00:24.814Z,100358.00
2022-12-04T20:03:58.763Z,100416.00
2022-12-04T20:11:01.962Z,100413.00
2022-12-04T20:13:42.692Z,100438.00
2022-12-04T20:16:21.831Z,100434.00
2022-12-04T20:19:30.394Z,100378.00
2022-12-04T20:22:05.236Z,100410.00
2022-12-04T20:25:00.734Z,100422.00
2022-12-04T20:27:40.169Z,100369.00
2022-12-04T20:30:22.625Z,100384.00
2022-12-04T20:33:25.051Z,100414.00
2022-12-04T20:36:27.204Z,100411.00
2022-12-04T20:39:02.433Z,100407.00
2022-12-04T20:41:43.792Z,100386.00
2022-12-04T20:45:06.763Z,100390.00
2022-12-04T20:48:22.923Z,100404.00
2022-12-04T20:51:14.711Z,100414.00
2022-12-04T20:54:25.198Z,100347.00
2022-12-04T20:57:14.672Z,100419.00
2022-12-04T20:59:54.808Z,100363.00
2022-12-04T21:03:19.320Z,100400.00
2022-12-04T21:06:07.869Z,100339.00
2022-12-04T21:12:56.512Z,100410.00
2022-12-04T21:15:55.772Z,100408.00
2022-12-04T21:18:33.762Z,100352.00
2022-12-04T21:21:14.151Z,100392.00
2022-12-04T21:23:55.761Z,100290.00
2022-12-04T21:26:49.072Z,100398.00
2022-12-04T21:30:31.078Z,100389.00
2022-12-04T21:33:15.162Z,100374.00
2022-12-04T21:35:55.062Z,100374.00
2022-12-04T21:38:38.734Z,100334.00
2022-12-04T21:41:37.106Z,100392.00
2022-12-04T21:44:28.840Z,100378.00
2022-12-04T21:47:05.894Z,100346.00
2022-12-04T21:49:48.113Z,100343.00
2022-12-04T21:52:40.001Z,100398.00
2022-12-04T21:55:42.627Z,100350.00
2022-12-04T21:58:40.844Z,100369.00
2022-12-04T22:01:21.944Z,100375.00
2022-12-04T22:04:05.432Z,100411.00
2022-12-04T22:06:41.265Z,100378.00
2022-12-04T22:09:26.749Z,100405.00
2022-12-04T22:12:51.343Z,100361.00
2022-12-04T22:15:45.492Z,100410.00
2022-12-04T22:18:26.823Z,100423.00
2022-12-04T22:21:22.838Z,100348.00
2022-12-04T22:24:00.432Z,100414.00
2022-12-04T22:26:36.528Z,100359.00
2022-12-04T22:29:42.015Z,100413.00
2022-12-04T22:32:09.622Z,100395.00
2022-12-04T22:35:12.578Z,100408.00
2022-12-04T22:37:52.095Z,100433.00
2022-12-04T22:40:27.358Z,100427.00
2022-12-04T22:43:08.264Z,100430.00
2022-12-04T22:45:46.406Z,100416.00
2022-12-04T22:48:24.786Z,100386.00
2022-12-04T22:51:08.766Z,100381.00
2022-12-04T22:54:20.934Z,100440.00
2022-12-04T22:56:55.615Z,100400.00
2022-12-04T22:59:30.763Z,100408.00
2022-12-04T23:02:09.582Z,100446.00
2022-12-04T23:04:52.108Z,100441.00
2022-12-04T23:07:30.667Z,100393.00
2022-12-04T23:10:24.498Z,100430.00
2022-12-04T23:13:17.948Z,100389.00
2022-12-04T23:16:18.414Z,100452.00
2022-12-04T23:19:07.642Z,100379.00
2022-12-04T23:21:56.662Z,100459.00
2022-12-04T23:27:59.259Z,100384.00
2022-12-04T23:30:36.519Z,100430.00
2022-12-04T23:33:11.946Z,100389.00
2022-12-04T23:35:59.570Z,100409.00
2022-12-04T23:38:40.372Z,100410.00
2022-12-04T23:41:19.471Z,100429.00
2022-12-04T23:44:02.095Z,100374.00
2022-12-04T23:46:36.856Z,100418.00
2022-12-04T23:49:11.118Z,100402.00
2022-12-04T23:51:47.608Z,100437.00
2022-12-04T23:54:24.174Z,100412.00
2022-12-04T23:56:58.582Z,100433.00
2022-12-04T23:59:52.082Z,100425.00
